createdAt,value
2023-05-23T00:03:49.542Z,97831.97
2023-05-23T00:07:51.781Z,97822.63
2023-05-23T00:11:53.823Z,97809.94
2023-05-23T00:15:55.873Z,97817.78
2023-05-23T00:19:57.906Z,97826.25
2023-05-23T00:24:00.150Z,97829.41
2023-05-23T00:28:03.500Z,97837.88
2023-05-23T00:32:05.601Z,97841.06
2023-05-23T00:36:07.643Z,97844.88
2023-05-23T00:40:10.145Z,97834.47
2023-05-23T00:44:12.366Z,97838.50
2023-05-23T00:48:14.931Z,97846.84
2023-05-23T00:52:17.583Z,97843.97
2023-05-23T00:56:20.983Z,97850.53
2023-05-23T01:00:25.402Z,97845.59
2023-05-23T01:04:28.346Z,97846.00
2023-05-23T01:08:30.672Z,97842.81
2023-05-23T01:12:48.042Z,97855.47
2023-05-23T01:17:07.782Z,97847.97
2023-05-23T01:21:16.147Z,97851.75
2023-05-23T01:25:36.270Z,97849.31
2023-05-23T01:29:43.572Z,97849.72
2023-05-23T01:33:46.303Z,97849.91
2023-05-23T01:37:48.550Z,97858.97
2023-05-23T01:41:51.917Z,97855.78
2023-05-23T01:45:57.398Z,97860.31
2023-05-23T01:50:00.374Z,97863.81
2023-05-23T01:54:03.348Z,97864.75
2023-05-23T01:58:06.093Z,97870.13
2023-05-23T02:02:08.292Z,97881.75
2023-05-23T02:06:10.817Z,97871.56
2023-05-23T02:10:12.957Z,97878.28
2023-05-23T02:14:15.061Z,97876.84
2023-05-23T02:18:18.080Z,97873.94
2023-05-23T02:22:24.721Z,97878.78
2023-05-23T02:26:27.553Z,97880.94
2023-05-23T02:30:29.621Z,97890.91
2023-05-23T02:34:32.303Z,97887.88
2023-05-23T02:38:34.429Z,97889.09
2023-05-23T02:42:36.608Z,97900.97
2023-05-23T02:46:39.133Z,97907.47
2023-05-23T02:50:41.306Z,97910.50
2023-05-23T02:54:43.494Z,97908.94
2023-05-23T02:58:45.855Z,97911.97
2023-05-23T03:02:48.064Z,97908.97
2023-05-23T03:06:50.294Z,97913.22
2023-05-23T03:10:53.358Z,97905.19
2023-05-23T03:14:55.963Z,97908.38
2023-05-23T03:18:58.703Z,97908.91
2023-05-23T03:23:01.181Z,97909.44
2023-05-23T03:27:04.355Z,97927.31
2023-05-23T03:31:06.712Z,97924.28
2023-05-23T03:35:09.689Z,97924.41
2023-05-23T03:39:12.722Z,97930.06
2023-05-23T03:43:15.119Z,97929.88
2023-05-23T03:47:18.678Z,97940.22
2023-05-23T03:51:21.378Z,97942.44
2023-05-23T03:55:25.562Z,97942.06
2023-05-23T03:59:28.100Z,97935.97
2023-05-23T04:03:33.048Z,97943.72
2023-05-23T04:07:36.990Z,97942.00
2023-05-23T04:11:39.477Z,97941.66
2023-05-23T04:15:42.976Z,97942.22
2023-05-23T04:19:47.310Z,97937.53
2023-05-23T04:23:50.101Z,97953.34
2023-05-23T04:27:54.202Z,97957.50
2023-05-23T04:31:56.398Z,97963.38
2023-05-23T04:35:58.520Z,97968.53
2023-05-23T04:40:01.193Z,97965.50
2023-05-23T04:44:21.578Z,97966.53
2023-05-23T04:48:36.286Z,97974.81
2023-05-23T04:52:38.913Z,97987.75
2023-05-23T04:56:41.356Z,97988.34
2023-05-23T05:00:44.577Z,97994.91
2023-05-23T05:04:48.862Z,97999.63
2023-05-23T05:08:51.344Z,98013.56
2023-05-23T05:12:54.146Z,98009.56
2023-05-23T05:16:57.750Z,98007.19
2023-05-23T05:21:04.890Z,98022.53
2023-05-23T05:25:08.459Z,98028.84
2023-05-23T05:29:11.278Z,98028.53
2023-05-23T05:33:13.473Z,98026.81
2023-05-23T05:37:16.480Z,98029.53
2023-05-23T05:41:19.544Z,98027.34
2023-05-23T05:45:24.938Z,98028.56
2023-05-23T05:49:27.106Z,98037.59
2023-05-23T05:53:30.958Z,98032.66
2023-05-23T05:57:33.764Z,98030.03
2023-05-23T06:01:37.945Z,98028.97
2023-05-23T06:05:41.323Z,98032.03
2023-05-23T06:09:43.511Z,98025.47
2023-05-23T06:13:46.146Z,98028.59
2023-05-23T06:17:48.467Z,98040.81
2023-05-23T06:21:50.934Z,98040.53
2023-05-23T06:25:53.389Z,98040.69
2023-05-23T06:29:55.482Z,98045.13
2023-05-23T06:33:57.564Z,98056.34
2023-05-23T06:37:59.621Z,98036.50
2023-05-23T06:42:02.453Z,98037.31
2023-05-23T06:46:15.816Z,98033.41
2023-05-23T06:50:21.232Z,98035.28
2023-05-23T06:54:24.683Z,98037.47
2023-05-23T06:58:26.979Z,98034.28
2023-05-23T07:02:31.948Z,98044.78
2023-05-23T07:06:36.325Z,98043.09
2023-05-23T07:10:41.637Z,98049.09
2023-05-23T07:14:57.051Z,98045.03
2023-05-23T07:19:01.611Z,98062.72
2023-05-23T07:23:03.853Z,98054.78
2023-05-23T07:27:06.520Z,98048.00
2023-05-23T07:31:09.925Z,98053.63
2023-05-23T07:35:13.210Z,98059.13
2023-05-23T07:39:15.618Z,98060.78
2023-05-23T07:43:17.852Z,98058.91
2023-05-23T07:47:20.029Z,98053.38
2023-05-23T07:51:22.584Z,98061.72
2023-05-23T07:55:26.520Z,98062.06
2023-05-23T07:59:30.360Z,98052.91
2023-05-23T08:03:33.409Z,98067.34
2023-05-23T08:07:43.829Z,98069.66
2023-05-23T08:11:46.263Z,98054.41
2023-05-23T08:15:48.506Z,98059.72
2023-05-23T08:19:58.494Z,98078.75
2023-05-23T08:24:00.728Z,98080.88
2023-05-23T08:28:02.865Z,98089.31
2023-05-23T09:46:38.339Z,98117.03
2023-05-23T10:00:12.590Z,98125.41
2023-05-23T10:04:25.419Z,98126.00
2023-05-23T10:08:36.818Z,98112.34
2023-05-23T10:12:51.698Z,98119.25
2023-05-23T10:17:07.561Z,98129.63
2023-05-23T10:21:13.143Z,98131.94
2023-05-23T10:25:15.903Z,98143.81
2023-05-23T10:29:18.036Z,98148.19
2023-05-23T10:33:22.543Z,98157.94
2023-05-23T10:37:33.483Z,98153.34
2023-05-23T10:41:48.979Z,98160.13
2023-05-23T10:45:52.145Z,98146.84
2023-05-23T10:49:55.520Z,98152.19
2023-05-23T10:53:57.603Z,98150.22
2023-05-23T10:58:23.312Z,98150.47
2023-05-23T11:02:27.452Z,98151.66
2023-05-23T11:06:33.879Z,98147.19
2023-05-23T11:10:54.753Z,98151.28
2023-05-23T11:14:56.902Z,98154.91
2023-05-23T11:19:22.979Z,98154.16
2023-05-23T11:23:40.318Z,98165.09
2023-05-23T11:27:46.719Z,98160.16
2023-05-23T11:31:48.917Z,98166.28
2023-05-23T11:35:51.898Z,98163.97
2023-05-23T11:39:53.941Z,98169.41
2023-05-23T11:43:56.148Z,98169.94
2023-05-23T11:47:58.616Z,98174.06
2023-05-23T11:52:02.385Z,98172.34
2023-05-23T11:56:04.948Z,98179.38
2023-05-23T12:00:08.900Z,98178.25
2023-05-23T12:04:14.390Z,98187.72
2023-05-23T12:08:16.583Z,98187.19
2023-05-23T12:12:20.526Z,98190.88
2023-05-23T12:16:22.791Z,98185.28
2023-05-23T12:20:26.554Z,98183.94
2023-05-23T12:24:28.613Z,98186.25
2023-05-23T12:28:45.449Z,98187.81
2023-05-23T12:32:47.879Z,98194.84
2023-05-23T12:36:52.011Z,98185.16
2023-05-23T12:41:13.023Z,98201.25
2023-05-23T12:45:15.800Z,98203.56
2023-05-23T12:49:17.902Z,98207.53
2023-05-23T12:53:19.972Z,98205.63
2023-05-23T12:57:22.566Z,98200.13
2023-05-23T13:01:24.756Z,98207.97
2023-05-23T13:05:27.601Z,98205.31
2023-05-23T13:09:29.715Z,98204.31
2023-05-23T13:13:35.393Z,98208.09
2023-05-23T13:17:37.508Z,98204.28
2023-05-23T13:21:39.802Z,98206.53
2023-05-23T13:25:42.391Z,98205.28
2023-05-23T13:29:44.615Z,98203.41
2023-05-23T13:33:46.839Z,98210.25
2023-05-23T13:37:49.018Z,98212.72
2023-05-23T13:41:51.145Z,98214.03
2023-05-23T13:45:53.428Z,98211.97
2023-05-23T13:49:55.606Z,98215.56
2023-05-23T13:53:57.676Z,98218.34
2023-05-23T13:57:59.708Z,98224.16
2023-05-23T14:02:01.759Z,98228.78
2023-05-23T14:06:05.373Z,98227.19
2023-05-23T14:10:09.198Z,98219.75
2023-05-23T14:14:11.254Z,98225.00
2023-05-23T14:18:13.414Z,98231.47
2023-05-23T14:22:15.583Z,98230.38
2023-05-23T14:26:17.628Z,98234.44
2023-05-23T14:30:19.779Z,98236.69
2023-05-23T14:34:21.882Z,98231.88
2023-05-23T14:38:24.178Z,98228.81
2023-05-23T14:42:26.559Z,98224.66
2023-05-23T14:46:28.642Z,98227.56
2023-05-23T14:50:30.896Z,98234.72
2023-05-23T14:54:33.145Z,98233.50
2023-05-23T14:58:35.234Z,98231.34
2023-05-23T15:08:13.635Z,98256.59
2023-05-23T15:12:15.802Z,98267.06
2023-05-23T15:16:18.273Z,98281.97
2023-05-23T15:20:20.461Z,98269.50
2023-05-23T15:24:22.577Z,98269.16
2023-05-23T15:46:07.721Z,98280.66
2023-05-23T15:50:11.748Z,98273.09
2023-05-23T15:54:14.974Z,98283.78
2023-05-23T16:04:18.031Z,98282.19
2023-05-23T16:08:20.896Z,98273.78
2023-05-23T16:12:22.919Z,98278.66
2023-05-23T16:16:25.057Z,98281.88
2023-05-23T16:20:27.272Z,98289.47
2023-05-23T16:24:29.309Z,98277.94
2023-05-23T16:28:31.363Z,98277.94
2023-05-23T16:32:34.218Z,98286.09
2023-05-23T16:36:37.217Z,98275.00
2023-05-23T16:40:39.434Z,98274.56
2023-05-23T16:44:41.737Z,98269.97
2023-05-23T16:48:43.858Z,98275.00
2023-05-23T16:52:45.937Z,98269.25
2023-05-23T16:56:48.019Z,98271.88
2023-05-23T17:00:50.109Z,98268.09
2023-05-23T17:04:52.225Z,98279.03
2023-05-23T17:08:54.295Z,98280.88
2023-05-23T17:12:56.317Z,98283.53
2023-05-23T17:16:58.379Z,98282.31
2023-05-23T17:21:00.530Z,98285.09
2023-05-23T17:25:05.160Z,98287.34
2023-05-23T17:29:07.240Z,98283.50
2023-05-23T17:33:10.953Z,98282.06
2023-05-23T17:37:13.067Z,98289.75
2023-05-23T17:41:15.810Z,98288.22
2023-05-23T17:45:17.982Z,98290.53
2023-05-23T17:49:20.514Z,98294.97
2023-05-23T17:53:22.576Z,98303.00
2023-05-23T17:57:24.903Z,98305.53
2023-05-23T18:01:26.980Z,98305.09
2023-05-23T18:05:29.031Z,98300.91
2023-05-23T18:09:31.095Z,98307.38
2023-05-23T18:13:33.160Z,98304.97
2023-05-23T18:17:35.561Z,98307.31
2023-05-23T18:21:37.946Z,98316.03
2023-05-23T18:25:40.044Z,98310.63
2023-05-23T18:29:42.279Z,98308.13
2023-05-23T18:33:44.534Z,98329.38
2023-05-23T18:37:47.105Z,98328.47
2023-05-23T18:41:49.382Z,98324.56
2023-05-23T18:45:51.562Z,98332.81
2023-05-23T18:49:53.838Z,98337.53
2023-05-23T18:53:56.031Z,98338.75
2023-05-23T18:57:59.066Z,98347.66
2023-05-23T19:02:01.148Z,98349.13
2023-05-23T19:06:03.988Z,98357.38
2023-05-23T19:10:06.593Z,98365.06
2023-05-23T19:14:08.860Z,98363.22
2023-05-23T19:18:11.053Z,98366.34
2023-05-23T19:22:13.131Z,98367.63
2023-05-23T19:26:16.138Z,98361.59
2023-05-23T19:30:19.110Z,98367.13
2023-05-23T19:34:21.266Z,98366.75
2023-05-23T19:38:23.353Z,98363.97
2023-05-23T19:42:25.556Z,98381.88
2023-05-23T19:46:28.879Z,98381.28
2023-05-23T19:50:31.274Z,98383.06
2023-05-23T19:54:33.398Z,98386.19
2023-05-23T19:58:38.476Z,98381.53
2023-05-23T20:02:41.479Z,98399.00
2023-05-23T20:06:43.711Z,98401.91
2023-05-23T20:10:46.460Z,98406.69
2023-05-23T20:14:48.522Z,98405.78
2023-05-23T20:18:51.033Z,98410.97
2023-05-23T20:22:53.312Z,98417.03
2023-05-23T20:26:55.353Z,98424.50
2023-05-23T20:30:58.248Z,98415.84
2023-05-23T20:35:00.902Z,98421.28
2023-05-23T20:39:03.004Z,98422.19
2023-05-23T20:43:05.677Z,98418.91
2023-05-23T20:47:10.116Z,98414.00
2023-05-23T20:51:14.341Z,98428.25
2023-05-23T20:55:16.680Z,98425.72
2023-05-23T20:59:18.792Z,98421.38
2023-05-23T21:03:20.919Z,98425.75
2023-05-23T21:07:22.974Z,98426.66
2023-05-23T21:11:25.093Z,98424.84
2023-05-23T21:15:27.326Z,98426.66
2023-05-23T21:19:29.547Z,98436.56
2023-05-23T21:23:31.672Z,98426.47
2023-05-23T21:27:33.747Z,98438.06
2023-05-23T21:31:41.384Z,98432.22
2023-05-23T21:35:45.232Z,98440.50
2023-05-23T21:39:52.048Z,98442.50
2023-05-23T21:43:54.822Z,98441.91
2023-05-23T21:47:57.023Z,98442.09
2023-05-23T21:51:59.402Z,98457.16
2023-05-23T21:56:01.682Z,98452.84
2023-05-23T22:00:04.721Z,98444.88
2023-05-23T22:04:15.045Z,98446.47
2023-05-23T22:08:17.116Z,98450.44
2023-05-23T22:12:20.128Z,98459.25
2023-05-23T22:16:22.343Z,98453.44
2023-05-23T22:20:24.558Z,98464.06
2023-05-23T22:24:26.761Z,98466.03
2023-05-23T22:28:28.854Z,98478.41
2023-05-23T22:32:31.115Z,98473.31
2023-05-23T22:36:33.514Z,98470.84
2023-05-23T22:40:38.054Z,98475.34
2023-05-23T22:44:40.132Z,98470.22
2023-05-23T22:48:42.812Z,98470.31
2023-05-23T22:52:44.896Z,98471.16
2023-05-23T22:56:46.920Z,98468.38
2023-05-23T23:00:49.090Z,98469.94
2023-05-23T23:04:51.266Z,98470.41
2023-05-23T23:08:53.337Z,98474.44
2023-05-23T23:12:55.561Z,98476.00
2023-05-23T23:16:58.160Z,98479.03
2023-05-23T23:21:00.415Z,98474.97
2023-05-23T23:25:09.676Z,98481.47
2023-05-23T23:29:11.712Z,98485.22
2023-05-23T23:33:14.545Z,98484.50
2023-05-23T23:37:17.117Z,98478.50
2023-05-23T23:41:19.280Z,98481.75
2023-05-23T23:45:21.719Z,98480.59
2023-05-23T23:49:23.754Z,98482.44
2023-05-23T23:53:25.816Z,98485.03
2023-05-23T23:57:27.857Z,98489.69
